sensor_id;sensor_type;location;lat;lon;timestamp;pressure;altitude;pressure_sealevel;temperature;humidity
56831;BME280;42713;42.676;23.352;2023-09-18T00:02:25;95253.00;;;19.47;70.15
56831;BME280;42713;42.676;23.352;2023-09-18T00:04:52;95253.78;;;19.47;70.42
56831;BME280;42713;42.676;23.352;2023-09-18T00:07:17;95257.72;;;19.50;70.54
56831;BME280;42713;42.676;23.352;2023-09-18T00:09:43;95253.53;;;19.49;70.61
56831;BME280;42713;42.676;23.352;2023-09-18T00:12:09;95250.63;;;19.45;70.59
56831;BME280;42713;42.676;23.352;2023-09-18T00:14:36;95256.75;;;19.46;70.85
56831;BME280;42713;42.676;23.352;2023-09-18T00:17:01;95245.31;;;19.45;70.87
56831;BME280;42713;42.676;23.352;2023-09-18T00:19:27;95254.09;;;19.46;70.85
56831;BME280;42713;42.676;23.352;2023-09-18T00:21:53;95255.16;;;19.44;70.92
56831;BME280;42713;42.676;23.352;2023-09-18T00:24:19;95247.97;;;19.45;71.06
56831;BME280;42713;42.676;23.352;2023-09-18T00:26:45;95248.25;;;19.43;71.14
56831;BME280;42713;42.676;23.352;2023-09-18T00:29:13;95255.44;;;19.43;70.79
56831;BME280;42713;42.676;23.352;2023-09-18T00:31:39;95255.44;;;19.43;70.91
56831;BME280;42713;42.676;23.352;2023-09-18T00:34:04;95252.06;;;19.37;71.06
56831;BME280;42713;42.676;23.352;2023-09-18T00:36:30;95252.84;;;19.38;70.96
56831;BME280;42713;42.676;23.352;2023-09-18T00:38:55;95260.31;;;19.36;71.29
56831;BME280;42713;42.676;23.352;2023-09-18T00:41:21;95261.41;;;19.35;71.01
56831;BME280;42713;42.676;23.352;2023-09-18T00:43:46;95252.41;;;19.31;71.06
56831;BME280;42713;42.676;23.352;2023-09-18T00:46:12;95262.47;;;19.34;70.93
56831;BME280;42713;42.676;23.352;2023-09-18T00:48:37;95261.97;;;19.32;70.92
56831;BME280;42713;42.676;23.352;2023-09-18T00:51:03;95266.19;;;19.33;70.99
56831;BME280;42713;42.676;23.352;2023-09-18T00:53:29;95257.22;;;19.28;71.01
56831;BME280;42713;42.676;23.352;2023-09-18T00:55:57;95267.84;;;19.28;71.14
56831;BME280;42713;42.676;23.352;2023-09-18T00:58:26;95261.75;;;19.28;70.87
56831;BME280;42713;42.676;23.352;2023-09-18T01:00:51;95256.22;;;19.24;70.97
56831;BME280;42713;42.676;23.352;2023-09-18T01:03:18;95260.19;;;19.22;70.96
56831;BME280;42713;42.676;23.352;2023-09-18T01:05:44;95261.78;;;19.23;70.92
56831;BME280;42713;42.676;23.352;2023-09-18T01:08:10;95270.03;;;19.21;70.81
56831;BME280;42713;42.676;23.352;2023-09-18T01:11:21;95269.53;;;19.19;70.98
56831;BME280;42713;42.676;23.352;2023-09-18T01:13:56;95273.84;;;19.15;70.79
56831;BME280;42713;42.676;23.352;2023-09-18T01:16:41;95268.03;;;19.13;70.61
56831;BME280;42713;42.676;23.352;2023-09-18T01:19:11;95267.22;;;19.12;70.74
56831;BME280;42713;42.676;23.352;2023-09-18T01:21:36;95266.22;;;19.08;70.54
56831;BME280;42713;42.676;23.352;2023-09-18T01:24:02;95266.69;;;19.10;70.47
56831;BME280;42713;42.676;23.352;2023-09-18T01:26:28;95256.38;;;19.09;70.45
56831;BME280;42713;42.676;23.352;2023-09-18T01:28:53;95256.38;;;19.09;70.48
56831;BME280;42713;42.676;23.352;2023-09-18T01:31:19;95263.56;;;19.08;70.32
56831;BME280;42713;42.676;23.352;2023-09-18T01:33:46;95263.03;;;19.06;70.36
56831;BME280;42713;42.676;23.352;2023-09-18T01:36:13;95264.13;;;19.05;70.47
56831;BME280;42713;42.676;23.352;2023-09-18T01:38:40;95262.25;;;19.06;70.29
56831;BME280;42713;42.676;23.352;2023-09-18T01:41:06;95271.56;;;19.03;70.22
56831;BME280;42713;42.676;23.352;2023-09-18T01:43:31;95266.00;;;19.05;70.40
56831;BME280;42713;42.676;23.352;2023-09-18T01:45:57;95262.31;;;19.01;70.36
56831;BME280;42713;42.676;23.352;2023-09-18T01:48:22;95270.78;;;19.03;70.28
56831;BME280;42713;42.676;23.352;2023-09-18T01:50:48;95265.75;;;19.01;70.30
56831;BME280;42713;42.676;23.352;2023-09-18T01:53:13;95263.59;;;19.03;70.46
56831;BME280;42713;42.676;23.352;2023-09-18T01:55:39;95262.31;;;19.01;70.49
56831;BME280;42713;42.676;23.352;2023-09-18T01:58:04;95263.88;;;19.02;70.54
56831;BME280;42713;42.676;23.352;2023-09-18T02:00:30;95273.72;;;19.01;70.60
56831;BME280;42713;42.676;23.352;2023-09-18T02:02:55;95276.66;;;19.00;70.67
56831;BME280;42713;42.676;23.352;2023-09-18T02:05:21;95264.25;;;18.90;70.56
56831;BME280;42713;42.676;23.352;2023-09-18T02:07:47;95274.56;;;18.96;70.69
56831;BME280;42713;42.676;23.352;2023-09-18T02:10:12;95278.31;;;18.95;70.69
56831;BME280;42713;42.676;23.352;2023-09-18T02:12:38;95277.50;;;18.95;71.08
56831;BME280;42713;42.676;23.352;2023-09-18T02:15:05;95283.09;;;18.93;71.00
56831;BME280;42713;42.676;23.352;2023-09-18T02:17:32;95278.81;;;18.92;70.84
56831;BME280;42713;42.676;23.352;2023-09-18T02:19:57;95264.84;;;18.81;70.98
56831;BME280;42713;42.676;23.352;2023-09-18T02:22:24;95279.63;;;18.93;71.03
56831;BME280;42713;42.676;23.352;2023-09-18T02:24:50;95282.28;;;18.93;71.08
56831;BME280;42713;42.676;23.352;2023-09-18T02:27:15;95270.06;;;18.92;71.03
56831;BME280;42713;42.676;23.352;2023-09-18T02:29:45;95277.53;;;18.90;71.35
56831;BME280;42713;42.676;23.352;2023-09-18T02:32:11;95279.38;;;18.89;70.96
56831;BME280;42713;42.676;23.352;2023-09-18T02:34:36;95275.47;;;18.81;71.00
56831;BME280;42713;42.676;23.352;2023-09-18T02:37:02;95284.97;;;18.88;71.37
56831;BME280;42713;42.676;23.352;2023-09-18T02:39:28;95277.34;;;18.81;71.20
56831;BME280;42713;42.676;23.352;2023-09-18T02:41:53;95277.06;;;18.82;71.08
56831;BME280;42713;42.676;23.352;2023-09-18T02:44:19;95268.94;;;18.74;70.79
56831;BME280;42713;42.676;23.352;2023-09-18T02:46:45;95253.03;;;18.69;70.90
56831;BME280;42713;42.676;23.352;2023-09-18T02:49:10;95258.34;;;18.69;71.12
56831;BME280;42713;42.676;23.352;2023-09-18T02:51:36;95257.06;;;18.66;70.98
56831;BME280;42713;42.676;23.352;2023-09-18T02:54:02;95278.97;;;18.77;70.47
56831;BME280;42713;42.676;23.352;2023-09-18T02:56:27;95281.13;;;18.75;70.91
56831;BME280;42713;42.676;23.352;2023-09-18T02:58:53;95276.38;;;18.72;70.88
56831;BME280;42713;42.676;23.352;2023-09-18T03:01:18;95276.38;;;18.72;71.01
56831;BME280;42713;42.676;23.352;2023-09-18T03:03:44;95281.97;;;18.70;71.01
56831;BME280;42713;42.676;23.352;2023-09-18T03:06:09;95283.28;;;18.67;71.03
56831;BME280;42713;42.676;23.352;2023-09-18T03:08:35;95285.47;;;18.65;71.05
56831;BME280;42713;42.676;23.352;2023-09-18T03:11:01;95280.41;;;18.64;71.29
56831;BME280;42713;42.676;23.352;2023-09-18T03:13:27;95288.66;;;18.62;71.39
56831;BME280;42713;42.676;23.352;2023-09-18T03:15:53;95276.25;;;18.58;71.24
56831;BME280;42713;42.676;23.352;2023-09-18T03:18:19;95274.66;;;18.57;71.42
56831;BME280;42713;42.676;23.352;2023-09-18T03:20:44;95278.59;;;18.59;71.21
56831;BME280;42713;42.676;23.352;2023-09-18T03:23:10;95275.72;;;18.56;71.37
56831;BME280;42713;42.676;23.352;2023-09-18T03:25:36;95283.16;;;18.54;71.34
56831;BME280;42713;42.676;23.352;2023-09-18T03:28:03;95274.41;;;18.53;71.01
56831;BME280;42713;42.676;23.352;2023-09-18T03:30:29;95273.63;;;18.52;71.37
56831;BME280;42713;42.676;23.352;2023-09-18T03:32:54;95268.06;;;18.49;71.44
56831;BME280;42713;42.676;23.352;2023-09-18T03:35:20;95263.34;;;18.46;71.61
56831;BME280;42713;42.676;23.352;2023-09-18T03:37:50;95266.50;;;18.48;71.60
56831;BME280;42713;42.676;23.352;2023-09-18T03:40:17;95268.06;;;18.49;71.56
56831;BME280;42713;42.676;23.352;2023-09-18T03:42:43;95267.56;;;18.47;71.54
56831;BME280;42713;42.676;23.352;2023-09-18T03:45:09;95263.06;;;18.47;71.62
56831;BME280;42713;42.676;23.352;2023-09-18T03:47:36;95268.66;;;18.46;71.47
56831;BME280;42713;42.676;23.352;2023-09-18T03:50:03;95262.53;;;18.45;71.79
56831;BME280;42713;42.676;23.352;2023-09-18T03:52:29;95260.19;;;18.44;71.52
56831;BME280;42713;42.676;23.352;2023-09-18T03:54:55;95255.41;;;18.41;71.79
56831;BME280;42713;42.676;23.352;2023-09-18T03:57:21;95259.44;;;18.38;72.00
56831;BME280;42713;42.676;23.352;2023-09-18T03:59:46;95259.72;;;18.37;72.03
56831;BME280;42713;42.676;23.352;2023-09-18T04:02:11;95256.53;;;18.34;71.95
56831;BME280;42713;42.676;23.352;2023-09-18T04:04:37;95260.56;;;18.32;71.92
56831;BME280;42713;42.676;23.352;2023-09-18T04:07:05;95261.63;;;18.31;72.43
56831;BME280;42713;42.676;23.352;2023-09-18T04:09:31;95259.22;;;18.29;72.24
56831;BME280;42713;42.676;23.352;2023-09-18T04:11:57;95259.00;;;18.26;72.44
56831;BME280;42713;42.676;23.352;2023-09-18T04:14:22;95257.16;;;18.26;72.22
56831;BME280;42713;42.676;23.352;2023-09-18T04:16:48;95258.47;;;18.24;72.81
56831;BME280;42713;42.676;23.352;2023-09-18T04:19:13;95266.44;;;18.24;72.67
56831;BME280;42713;42.676;23.352;2023-09-18T04:21:39;95264.84;;;18.23;72.70
56831;BME280;42713;42.676;23.352;2023-09-18T04:24:04;95262.47;;;18.21;72.85
56831;BME280;42713;42.676;23.352;2023-09-18T04:26:30;95267.53;;;18.17;72.62
56831;BME280;42713;42.676;23.352;2023-09-18T04:28:57;95267.53;;;18.17;72.52
56831;BME280;42713;42.676;23.352;2023-09-18T04:31:22;95276.28;;;18.18;72.88
56831;BME280;42713;42.676;23.352;2023-09-18T04:33:48;95267.84;;;18.16;73.18
56831;BME280;42713;42.676;23.352;2023-09-18T04:36:14;95267.59;;;18.12;73.19
56831;BME280;42713;42.676;23.352;2023-09-18T04:38:39;95273.91;;;18.16;73.20
56831;BME280;42713;42.676;23.352;2023-09-18T04:41:05;95268.66;;;18.11;73.36
56831;BME280;42713;42.676;23.352;2023-09-18T04:43:33;95273.13;;;18.16;73.17
56831;BME280;42713;42.676;23.352;2023-09-18T04:46:00;95276.56;;;18.16;73.27
56831;BME280;42713;42.676;23.352;2023-09-18T04:48:27;95275.50;;;18.17;73.44
56831;BME280;42713;42.676;23.352;2023-09-18T04:50:52;95274.97;;;18.15;73.39
56831;BME280;42713;42.676;23.352;2023-09-18T04:53:18;95281.09;;;18.16;73.30
56831;BME280;42713;42.676;23.352;2023-09-18T04:55:43;95269.41;;;18.17;73.36
56831;BME280;42713;42.676;23.352;2023-09-18T04:58:09;95272.06;;;18.17;73.22
56831;BME280;42713;42.676;23.352;2023-09-18T05:00:34;95268.91;;;18.15;73.19
56831;BME280;42713;42.676;23.352;2023-09-18T05:03:00;95267.53;;;18.17;73.36
56831;BME280;42713;42.676;23.352;2023-09-18T05:05:32;95264.88;;;18.17;73.62
56831;BME280;42713;42.676;23.352;2023-09-18T05:07:58;95270.72;;;18.19;73.58
56831;BME280;42713;42.676;23.352;2023-09-18T05:10:23;95265.41;;;18.19;74.05
56831;BME280;42713;42.676;23.352;2023-09-18T05:12:49;95260.34;;;18.23;73.98
56831;BME280;42713;42.676;23.352;2023-09-18T05:15:16;95272.25;;;18.26;73.96
56831;BME280;42713;42.676;23.352;2023-09-18T05:17:46;95275.72;;;18.26;73.93
56831;BME280;42713;42.676;23.352;2023-09-18T05:20:13;95278.59;;;18.30;73.86
56831;BME280;42713;42.676;23.352;2023-09-18T05:22:41;95283.31;;;18.33;73.71
56831;BME280;42713;42.676;23.352;2023-09-18T05:25:08;95274.59;;;18.32;73.69
56831;BME280;42713;42.676;23.352;2023-09-18T05:27:35;95282.50;;;18.38;73.33
56831;BME280;42713;42.676;23.352;2023-09-18T05:30:19;95283.59;;;18.37;73.41
56831;BME280;42713;42.676;23.352;2023-09-18T05:32:47;95288.06;;;18.41;73.37
56831;BME280;42713;42.676;23.352;2023-09-18T05:35:13;95288.28;;;18.45;73.29
56831;BME280;42713;42.676;23.352;2023-09-18T05:37:43;95283.22;;;18.48;73.25
56831;BME280;42713;42.676;23.352;2023-09-18T05:40:11;95282.66;;;18.51;73.51
56831;BME280;42713;42.676;23.352;2023-09-18T05:42:42;95283.97;;;18.54;73.57
56831;BME280;42713;42.676;23.352;2023-09-18T05:45:12;95287.06;;;18.61;73.34
56831;BME280;42713;42.676;23.352;2023-09-18T05:47:38;95294.97;;;18.66;72.76
56831;BME280;42713;42.676;23.352;2023-09-18T05:50:08;95291.78;;;18.70;72.85
56831;BME280;42713;42.676;23.352;2023-09-18T05:52:34;95293.59;;;18.74;72.84
56831;BME280;42713;42.676;23.352;2023-09-18T05:55:01;95293.03;;;18.77;73.05
56831;BME280;42713;42.676;23.352;2023-09-18T05:57:27;95306.53;;;18.81;72.63
56831;BME280;42713;42.676;23.352;2023-09-18T05:59:55;95296.44;;;18.83;72.57
56831;BME280;42713;42.676;23.352;2023-09-18T06:02:20;95293.50;;;18.85;72.31
56831;BME280;42713;42.676;23.352;2023-09-18T06:04:46;95292.72;;;18.84;72.28
56831;BME280;42713;42.676;23.352;2023-09-18T06:07:11;95296.13;;;18.90;72.07
56831;BME280;42713;42.676;23.352;2023-09-18T06:09:38;95299.03;;;18.93;72.18
56831;BME280;42713;42.676;23.352;2023-09-18T06:12:04;95294.50;;;18.94;72.33
56831;BME280;42713;42.676;23.352;2023-09-18T06:14:31;95295.78;;;18.96;72.11
56831;BME280;42713;42.676;23.352;2023-09-18T06:16:57;95291.00;;;18.98;71.73
56831;BME280;42713;42.676;23.352;2023-09-18T06:19:22;95299.47;;;19.01;71.31
56831;BME280;42713;42.676;23.352;2023-09-18T06:21:48;95296.75;;;19.06;71.59
56831;BME280;42713;42.676;23.352;2023-09-18T06:24:14;95295.13;;;19.10;71.34
56831;BME280;42713;42.676;23.352;2023-09-18T06:26:39;95289.78;;;19.15;71.54
56831;BME280;42713;42.676;23.352;2023-09-18T06:29:05;95297.38;;;19.22;71.22
56831;BME280;42713;42.676;23.352;2023-09-18T06:31:31;95300.56;;;19.24;70.98
56831;BME280;42713;42.676;23.352;2023-09-18T06:33:57;95300.50;;;19.29;70.90
56831;BME280;42713;42.676;23.352;2023-09-18T06:36:22;95304.97;;;19.34;70.10
56831;BME280;42713;42.676;23.352;2023-09-18T06:38:48;95299.66;;;19.34;69.78
56831;BME280;42713;42.676;23.352;2023-09-18T06:41:13;95300.94;;;19.36;69.75
56831;BME280;42713;42.676;23.352;2023-09-18T06:43:39;95299.28;;;19.40;69.91
56831;BME280;42713;42.676;23.352;2023-09-18T06:46:07;95303.50;;;19.47;69.55
56831;BME280;42713;42.676;23.352;2023-09-18T06:48:33;95295.72;;;19.50;69.59
56831;BME280;42713;42.676;23.352;2023-09-18T06:50:59;95303.41;;;19.52;69.08
56831;BME280;42713;42.676;23.352;2023-09-18T06:53:27;95296.97;;;19.58;69.22
56831;BME280;42713;42.676;23.352;2023-09-18T06:55:53;95300.91;;;19.60;68.79
56831;BME280;42713;42.676;23.352;2023-09-18T06:58:19;95300.91;;;19.60;68.57
56831;BME280;42713;42.676;23.352;2023-09-18T07:00:45;95300.38;;;19.64;68.24
56831;BME280;42713;42.676;23.352;2023-09-18T07:03:10;95304.81;;;19.68;68.58
56831;BME280;42713;42.676;23.352;2023-09-18T07:05:37;95299.22;;;19.70;68.33
56831;BME280;42713;42.676;23.352;2023-09-18T07:08:03;95307.63;;;19.77;68.42
56831;BME280;42713;42.676;23.352;2023-09-18T07:10:30;95305.97;;;19.81;67.94
56831;BME280;42713;42.676;23.352;2023-09-18T07:12:56;95299.84;;;19.81;67.92
56831;BME280;42713;42.676;23.352;2023-09-18T07:15:21;95293.97;;;19.84;68.00
56831;BME280;42713;42.676;23.352;2023-09-18T07:17:47;95294.50;;;19.86;67.96
56831;BME280;42713;42.676;23.352;2023-09-18T07:20:13;95289.72;;;19.88;67.73
56831;BME280;42713;42.676;23.352;2023-09-18T07:22:45;95301.84;;;19.94;67.75
56831;BME280;42713;42.676;23.352;2023-09-18T07:25:11;95298.81;;;20.01;67.69
56831;BME280;42713;42.676;23.352;2023-09-18T07:27:37;95309.09;;;20.08;67.91
56831;BME280;42713;42.676;23.352;2023-09-18T07:30:05;95301.34;;;20.11;67.98
56831;BME280;42713;42.676;23.352;2023-09-18T07:32:31;95302.84;;;20.17;66.62
56831;BME280;42713;42.676;23.352;2023-09-18T07:34:58;95298.03;;;20.19;66.43
56831;BME280;42713;42.676;23.352;2023-09-18T07:37:30;95304.25;;;20.29;66.37
56831;BME280;42713;42.676;23.352;2023-09-18T07:40:07;95304.16;;;20.34;66.26
56831;BME280;42713;42.676;23.352;2023-09-18T07:42:34;95302.81;;;20.36;65.71
56831;BME280;42713;42.676;23.352;2023-09-18T07:45:00;95292.28;;;20.45;66.07
56831;BME280;42713;42.676;23.352;2023-09-18T07:47:28;95305.53;;;20.50;65.84
56831;BME280;42713;42.676;23.352;2023-09-18T07:49:53;95304.44;;;20.51;65.01
56831;BME280;42713;42.676;23.352;2023-09-18T07:52:19;95302.78;;;20.56;64.82
56831;BME280;42713;42.676;23.352;2023-09-18T07:54:45;95303.78;;;20.60;64.49
56831;BME280;42713;42.676;23.352;2023-09-18T07:57:15;95291.34;;;20.55;64.36
56831;BME280;42713;42.676;23.352;2023-09-18T07:59:42;95289.31;;;20.66;64.34
56831;BME280;42713;42.676;23.352;2023-09-18T08:02:08;95282.41;;;20.65;64.04
56831;BME280;42713;42.676;23.352;2023-09-18T08:04:41;95295.03;;;20.73;64.04
56831;BME280;42713;42.676;23.352;2023-09-18T08:07:12;95269.69;;;20.62;63.78
56831;BME280;42713;42.676;23.352;2023-09-18T08:10:04;95272.56;;;20.65;63.80
56831;BME280;42713;42.676;23.352;2023-09-18T08:16:48;95257.88;;;20.68;62.80
56831;BME280;42713;42.676;23.352;2023-09-18T08:19:45;95261.25;;;20.74;62.93
56831;BME280;42713;42.676;23.352;2023-09-18T08:22:20;95275.97;;;20.85;62.74
56831;BME280;42713;42.676;23.352;2023-09-18T08:24:48;95267.38;;;20.88;62.35
56831;BME280;42713;42.676;23.352;2023-09-18T08:27:17;95263.56;;;20.94;62.04
56831;BME280;42713;42.676;23.352;2023-09-18T08:29:55;95262.47;;;20.95;62.05
56831;BME280;42713;42.676;23.352;2023-09-18T08:32:47;95262.66;;;20.99;62.45
56831;BME280;42713;42.676;23.352;2023-09-18T08:35:16;95264.75;;;21.16;61.84
56831;BME280;42713;42.676;23.352;2023-09-18T08:37:44;95250.25;;;21.08;61.22
56831;BME280;42713;42.676;23.352;2023-09-18T08:40:13;95269.97;;;21.21;60.82
56831;BME280;42713;42.676;23.352;2023-09-18T08:42:51;95260.09;;;21.22;61.15
56831;BME280;42713;42.676;23.352;2023-09-18T08:45:41;95271.22;;;21.38;60.89
56831;BME280;42713;42.676;23.352;2023-09-18T08:48:13;95246.09;;;21.30;60.56
56831;BME280;42713;42.676;23.352;2023-09-18T08:50:41;95244.09;;;21.36;60.22
56831;BME280;42713;42.676;23.352;2023-09-18T08:53:08;95257.31;;;21.55;59.49
56831;BME280;42713;42.676;23.352;2023-09-18T08:55:37;95262.56;;;21.60;59.44
56831;BME280;42713;42.676;23.352;2023-09-18T08:58:03;95247.91;;;21.57;59.65
56831;BME280;42713;42.676;23.352;2023-09-18T09:00:29;95252.78;;;21.69;59.49
56831;BME280;42713;42.676;23.352;2023-09-18T09:02:54;95228.88;;;21.64;59.12
56831;BME280;42713;42.676;23.352;2023-09-18T09:07:50;95246.31;;;21.84;58.42
56831;BME280;42713;42.676;23.352;2023-09-18T09:10:17;95251.69;;;21.93;58.51
56831;BME280;42713;42.676;23.352;2023-09-18T09:12:53;95244.88;;;22.01;57.89
56831;BME280;42713;42.676;23.352;2023-09-18T09:15:34;95251.66;;;22.07;57.93
56831;BME280;42713;42.676;23.352;2023-09-18T09:18:06;95248.88;;;22.12;57.29
56831;BME280;42713;42.676;23.352;2023-09-18T09:20:32;95249.72;;;22.21;57.05
56831;BME280;42713;42.676;23.352;2023-09-18T09:23:02;95247.91;;;22.31;56.48
56831;BME280;42713;42.676;23.352;2023-09-18T09:25:29;95243.22;;;22.36;55.65
56831;BME280;42713;42.676;23.352;2023-09-18T09:28:01;95242.16;;;22.37;55.54
56831;BME280;42713;42.676;23.352;2023-09-18T09:30:28;95239.59;;;22.32;55.90
56831;BME280;42713;42.676;23.352;2023-09-18T09:32:55;95234.41;;;22.36;55.13
56831;BME280;42713;42.676;23.352;2023-09-18T09:35:26;95235.28;;;22.45;55.26
56831;BME280;42713;42.676;23.352;2023-09-18T09:38:00;95230.31;;;22.52;55.36
56831;BME280;42713;42.676;23.352;2023-09-18T09:40:29;95233.03;;;22.61;54.28
56831;BME280;42713;42.676;23.352;2023-09-18T09:42:56;95235.56;;;22.66;54.33
56831;BME280;42713;42.676;23.352;2023-09-18T09:45:33;95227.09;;;22.73;53.40
56831;BME280;42713;42.676;23.352;2023-09-18T09:48:05;95224.16;;;22.83;52.78
56831;BME280;42713;42.676;23.352;2023-09-18T09:50:44;95224.22;;;22.92;52.81
56831;BME280;42713;42.676;23.352;2023-09-18T09:53:11;95222.34;;;23.01;53.21
56831;BME280;42713;42.676;23.352;2023-09-18T09:55:39;95216.56;;;23.08;53.13
56831;BME280;42713;42.676;23.352;2023-09-18T09:58:08;95208.72;;;23.12;53.07
56831;BME280;42713;42.676;23.352;2023-09-18T10:03:10;95216.31;;;23.27;52.67
56831;BME280;42713;42.676;23.352;2023-09-18T10:05:37;95208.31;;;23.27;52.28
56831;BME280;42713;42.676;23.352;2023-09-18T10:08:08;95203.28;;;23.26;52.03
56831;BME280;42713;42.676;23.352;2023-09-18T10:10:39;95203.44;;;23.29;51.80
56831;BME280;42713;42.676;23.352;2023-09-18T10:13:16;95197.16;;;23.34;51.98
56831;BME280;42713;42.676;23.352;2023-09-18T10:24:22;95186.16;;;23.44;50.09
56831;BME280;42713;42.676;23.352;2023-09-18T10:27:07;95188.22;;;23.56;50.01
56831;BME280;42713;42.676;23.352;2023-09-18T10:29:57;95201.91;;;23.81;50.08
56831;BME280;42713;42.676;23.352;2023-09-18T10:33:11;95187.13;;;23.84;49.19
56831;BME280;42713;42.676;23.352;2023-09-18T10:35:37;95181.44;;;23.94;49.15
56831;BME280;42713;42.676;23.352;2023-09-18T10:38:05;95180.38;;;23.95;48.52
56831;BME280;42713;42.676;23.352;2023-09-18T10:40:32;95172.19;;;24.00;48.31
56831;BME280;42713;42.676;23.352;2023-09-18T10:43:02;95175.47;;;24.06;48.21
56831;BME280;42713;42.676;23.352;2023-09-18T10:45:29;95170.25;;;24.18;48.54
56831;BME280;42713;42.676;23.352;2023-09-18T10:47:56;95170.09;;;24.23;47.87
56831;BME280;42713;42.676;23.352;2023-09-18T10:50:26;95155.44;;;24.30;48.16
56831;BME280;42713;42.676;23.352;2023-09-18T10:52:58;95158.09;;;24.38;47.47
56831;BME280;42713;42.676;23.352;2023-09-18T10:55:25;95152.69;;;24.47;46.69
56831;BME280;42713;42.676;23.352;2023-09-18T10:57:55;95154.13;;;24.53;46.24
56831;BME280;42713;42.676;23.352;2023-09-18T11:00:21;95158.34;;;24.54;45.71
56831;BME280;42713;42.676;23.352;2023-09-18T11:02:54;95150.78;;;24.56;45.72
56831;BME280;42713;42.676;23.352;2023-09-18T11:05:34;95148.53;;;24.67;45.87
56831;BME280;42713;42.676;23.352;2023-09-18T11:08:26;95138.69;;;24.89;45.54
56831;BME280;42713;42.676;23.352;2023-09-18T11:11:10;95143.16;;;25.06;45.21
56831;BME280;42713;42.676;23.352;2023-09-18T11:13:41;95134.81;;;25.29;45.02
56831;BME280;42713;42.676;23.352;2023-09-18T11:18:39;95131.00;;;25.60;44.23
56831;BME280;42713;42.676;23.352;2023-09-18T11:21:12;95130.59;;;25.70;43.09
56831;BME280;42713;42.676;23.352;2023-09-18T11:23:39;95126.50;;;25.85;43.04
56831;BME280;42713;42.676;23.352;2023-09-18T11:26:11;95119.28;;;25.98;42.29
56831;BME280;42713;42.676;23.352;2023-09-18T11:28:37;95120.88;;;26.12;42.63
56831;BME280;42713;42.676;23.352;2023-09-18T11:31:03;95112.28;;;26.18;41.21
56831;BME280;42713;42.676;23.352;2023-09-18T11:35:56;95110.31;;;26.40;41.69
56831;BME280;42713;42.676;23.352;2023-09-18T11:38:21;95105.06;;;26.44;41.11
56831;BME280;42713;42.676;23.352;2023-09-18T11:40:48;95108.09;;;26.54;41.49
56831;BME280;42713;42.676;23.352;2023-09-18T11:43:26;95106.75;;;26.61;40.53
56831;BME280;42713;42.676;23.352;2023-09-18T11:45:56;95107.19;;;26.63;40.32
56831;BME280;42713;42.676;23.352;2023-09-18T11:48:23;95097.88;;;26.60;40.75
56831;BME280;42713;42.676;23.352;2023-09-18T11:50:53;95097.47;;;26.58;40.65
56831;BME280;42713;42.676;23.352;2023-09-18T11:53:20;95102.59;;;26.63;40.71
56831;BME280;42713;42.676;23.352;2023-09-18T11:55:47;95085.13;;;26.45;41.11
56831;BME280;42713;42.676;23.352;2023-09-18T11:58:13;95089.72;;;26.56;41.24
56831;BME280;42713;42.676;23.352;2023-09-18T12:00:39;95087.59;;;26.62;40.86
56831;BME280;42713;42.676;23.352;2023-09-18T12:03:22;95085.91;;;26.70;40.32
56831;BME280;42713;42.676;23.352;2023-09-18T12:05:59;95089.06;;;26.72;41.09
56831;BME280;42713;42.676;23.352;2023-09-18T12:08:26;95088.06;;;26.77;40.48
56831;BME280;42713;42.676;23.352;2023-09-18T12:10:55;95079.19;;;26.76;40.22
56831;BME280;42713;42.676;23.352;2023-09-18T12:13:21;95092.53;;;26.85;39.93
56831;BME280;42713;42.676;23.352;2023-09-18T12:15:47;95093.88;;;26.91;40.39
56831;BME280;42713;42.676;23.352;2023-09-18T12:18:14;95087.06;;;26.94;40.88
56831;BME280;42713;42.676;23.352;2023-09-18T12:20:49;95089.47;;;27.11;40.73
56831;BME280;42713;42.676;23.352;2023-09-18T12:23:16;95089.69;;;27.18;40.02
56831;BME280;42713;42.676;23.352;2023-09-18T12:25:44;95082.53;;;27.23;40.19
56831;BME280;42713;42.676;23.352;2023-09-18T12:28:11;95079.34;;;27.33;39.91
56831;BME280;42713;42.676;23.352;2023-09-18T12:30:39;95079.75;;;27.47;39.93
56831;BME280;42713;42.676;23.352;2023-09-18T12:33:05;95080.59;;;27.64;39.61
56831;BME280;42713;42.676;23.352;2023-09-18T12:35:31;95072.38;;;27.73;39.33
56831;BME280;42713;42.676;23.352;2023-09-18T12:38:00;95071.59;;;27.88;39.26
56831;BME280;42713;42.676;23.352;2023-09-18T12:40:30;95072.75;;;28.03;39.14
56831;BME280;42713;42.676;23.352;2023-09-18T12:42:59;95071.59;;;28.17;38.86
56831;BME280;42713;42.676;23.352;2023-09-18T12:45:25;95075.13;;;28.37;38.54
56831;BME280;42713;42.676;23.352;2023-09-18T12:47:53;95073.56;;;28.52;37.86
56831;BME280;42713;42.676;23.352;2023-09-18T12:50:19;95069.66;;;28.65;37.49
56831;BME280;42713;42.676;23.352;2023-09-18T12:52:45;95057.22;;;28.77;37.33
56831;BME280;42713;42.676;23.352;2023-09-18T12:55:21;95060.72;;;28.97;37.22
56831;BME280;42713;42.676;23.352;2023-09-18T12:57:47;95063.75;;;29.11;36.64
56831;BME280;42713;42.676;23.352;2023-09-18T13:00:16;95058.69;;;29.29;36.33
56831;BME280;42713;42.676;23.352;2023-09-18T13:02:45;95064.13;;;29.49;35.73
56831;BME280;42713;42.676;23.352;2023-09-18T13:05:11;95057.50;;;29.66;35.29
56831;BME280;42713;42.676;23.352;2023-09-18T13:07:46;95054.72;;;29.82;35.09
56831;BME280;42713;42.676;23.352;2023-09-18T13:10:12;95041.56;;;30.00;34.87
56831;BME280;42713;42.676;23.352;2023-09-18T13:12:47;95049.59;;;30.20;34.95
56831;BME280;42713;42.676;23.352;2023-09-18T13:15:24;95046.41;;;30.37;34.21
56831;BME280;42713;42.676;23.352;2023-09-18T13:17:54;95050.41;;;30.47;33.74
56831;BME280;42713;42.676;23.352;2023-09-18T13:20:22;95047.91;;;30.35;33.49